Time;durP1;ratioP1;P1;durP2;ratioP2;P2;SDS_P1;SDS_P2;PMS_P1;PMS_P2;Temp;Humidity;BMP_temperature;BMP_pressure;BME280_temperature;BME280_humidity;BME280_pressure;Samples;Min_cycle;Max_cycle;Signal;HPM_P1;HPM_P2
2022/12/31 00:01:06;;;;;;;51.85;36.08;;;10.80;1.00;;;;;;5030721;28;20041;-61
2022/12/31 00:03:32;;;;;;;58.42;37.80;;;10.90;1.00;;;;;;5032953;28;20059;-60
2022/12/31 00:05:58;;;;;;;53.00;35.85;;;11.00;1.00;;;;;;5027868;28;20033;-61
2022/12/31 00:08:24;;;;;;;56.85;36.65;;;10.80;1.00;;;;;;5032198;28;20018;-60
2022/12/31 00:10:50;;;;;;;54.85;36.55;;;10.90;1.00;;;;;;5026796;28;20060;-60
2022/12/31 00:13:16;;;;;;;57.00;37.47;;;11.00;1.00;;;;;;5032500;28;20372;-60
2022/12/31 00:15:43;;;;;;;54.33;34.45;;;10.80;1.00;;;;;;5028919;28;20026;-61
2022/12/31 00:18:09;;;;;;;54.40;35.70;;;10.70;1.00;;;;;;5026142;28;20033;-60
2022/12/31 00:20:40;;;;;;;51.92;36.72;;;10.70;1.00;;;;;;5028479;28;20021;-60
2022/12/31 00:23:07;;;;;;;52.17;35.10;;;10.80;1.00;;;;;;5031749;28;20135;-60
2022/12/31 00:25:35;;;;;;;55.88;36.33;;;10.80;1.00;;;;;;5031804;28;20091;-60
2022/12/31 00:28:01;;;;;;;52.33;35.05;;;10.90;1.00;;;;;;5029782;28;20467;-60
2022/12/31 00:30:27;;;;;;;48.35;34.20;;;10.80;1.00;;;;;;5033182;28;20127;-60
2022/12/31 00:32:52;;;;;;;49.30;33.28;;;10.80;1.00;;;;;;5052008;28;20039;-60
2022/12/31 00:35:18;;;;;;;45.78;32.90;;;10.80;1.00;;;;;;5047924;28;20048;-60
2022/12/31 00:37:43;;;;;;;51.80;33.97;;;10.90;1.00;;;;;;5034777;28;20021;-60
2022/12/31 00:40:10;;;;;;;54.75;36.15;;;11.00;1.00;;;;;;5027531;28;20411;-60
2022/12/31 00:42:35;;;;;;;56.45;36.40;;;10.90;1.00;;;;;;5031762;28;20475;-60
2022/12/31 00:45:01;;;;;;;55.65;35.67;;;11.10;1.00;;;;;;5031437;28;20048;-60
2022/12/31 00:47:26;;;;;;;52.83;37.40;;;11.10;1.00;;;;;;5035795;28;20082;-60
2022/12/31 00:49:52;;;;;;;53.08;35.50;;;11.10;1.00;;;;;;5030735;28;20026;-60
2022/12/31 00:52:19;;;;;;;53.33;34.20;;;11.10;1.00;;;;;;5025466;28;20043;-60
2022/12/31 00:54:45;;;;;;;49.33;34.28;;;11.10;1.00;;;;;;5030484;28;20025;-60
2022/12/31 00:57:11;;;;;;;53.65;35.92;;;11.00;1.00;;;;;;5025098;28;20536;-60
2022/12/31 00:59:36;;;;;;;55.72;35.30;;;11.00;1.00;;;;;;5031513;28;20383;-59
2022/12/31 01:02:02;;;;;;;48.40;34.22;;;10.80;1.00;;;;;;5032033;28;20072;-60
2022/12/31 01:04:27;;;;;;;51.53;36.08;;;10.90;1.00;;;;;;5037189;28;20112;-60
2022/12/31 01:06:53;;;;;;;54.83;35.60;;;10.90;1.00;;;;;;5040128;28;20117;-61
2022/12/31 01:09:19;;;;;;;51.40;35.75;;;10.90;1.00;;;;;;5029858;28;20071;-60
2022/12/31 01:11:45;;;;;;;52.28;36.20;;;10.90;1.00;;;;;;5031843;28;20037;-60
2022/12/31 01:14:17;;;;;;;50.10;37.25;;;10.90;1.00;;;;;;5030355;28;20488;-60
2022/12/31 01:16:51;;;;;;;50.00;36.13;;;10.70;1.00;;;;;;5030313;28;20083;-60
2022/12/31 01:19:23;;;;;;;51.53;35.92;;;10.80;1.00;;;;;;5030292;28;20026;-60
2022/12/31 01:21:55;;;;;;;52.15;36.10;;;10.70;1.00;;;;;;5030183;28;20040;-60
2022/12/31 01:24:22;;;;;;;54.85;37.53;;;10.70;1.00;;;;;;5029932;28;20018;-60
2022/12/31 01:26:48;;;;;;;54.90;36.80;;;10.70;1.00;;;;;;5031557;28;20035;-61
2022/12/31 01:29:13;;;;;;;57.03;36.00;;;10.80;1.00;;;;;;5029891;28;20112;-60
2022/12/31 01:31:43;;;;;;;54.50;37.53;;;10.70;1.00;;;;;;5031332;28;20057;-61
2022/12/31 01:34:09;;;;;;;51.20;34.60;;;10.70;1.00;;;;;;5031523;28;20022;-60
2022/12/31 01:36:35;;;;;;;54.90;36.63;;;10.70;1.00;;;;;;5031704;28;20113;-60
2022/12/31 01:39:04;;;;;;;50.90;34.45;;;10.60;1.00;;;;;;5030508;28;20026;-60
2022/12/31 01:41:36;;;;;;;58.10;37.05;;;10.60;1.00;;;;;;5030236;28;20045;-60
2022/12/31 01:44:24;;;;;;;52.65;36.22;;;10.70;1.00;;;;;;5030879;28;20022;-60
2022/12/31 01:53:47;;;;;;;46.67;34.33;;;10.80;1.00;;;;;;5021411;28;20155;-60
2022/12/31 01:56:18;;;;;;;51.25;35.28;;;10.80;1.00;;;;;;5027041;28;20497;-60
2022/12/31 01:58:48;;;;;;;49.55;35.22;;;10.80;1.00;;;;;;5032253;28;20096;-60
2022/12/31 02:01:26;;;;;;;49.17;32.88;;;10.70;1.00;;;;;;5034470;28;20033;-60
2022/12/31 02:03:52;;;;;;;49.42;35.35;;;10.80;1.00;;;;;;5034336;28;20029;-60
2022/12/31 02:06:46;;;;;;;51.03;35.30;;;10.50;1.00;;;;;;5023245;28;20428;-60
2022/12/31 02:09:14;;;;;;;56.03;35.70;;;10.70;1.00;;;;;;5033227;28;20034;-60
2022/12/31 02:11:40;;;;;;;57.75;36.95;;;10.90;1.00;;;;;;5033816;28;20479;-60
2022/12/31 02:14:19;;;;;;;51.13;34.80;;;10.80;1.00;;;;;;5023600;28;20025;-60
2022/12/31 02:16:56;;;;;;;55.45;35.95;;;10.60;1.00;;;;;;5034584;28;20066;-60
2022/12/31 02:19:24;;;;;;;52.85;35.85;;;10.80;1.00;;;;;;5021625;28;20383;-60
2022/12/31 02:21:59;;;;;;;51.13;34.58;;;10.90;1.00;;;;;;5034547;28;20029;-60
2022/12/31 02:24:52;;;;;;;47.15;32.78;;;10.80;1.00;;;;;;5020988;28;20483;-61
2022/12/31 02:27:40;;;;;;;50.45;35.17;;;10.90;1.00;;;;;;5034336;28;20080;-60
2022/12/31 02:30:23;;;;;;;52.53;34.78;;;10.90;1.00;;;;;;5023354;28;20472;-60
2022/12/31 02:33:12;;;;;;;46.85;34.10;;;10.80;1.00;;;;;;5024159;28;20026;-61
2022/12/31 02:35:54;;;;;;;49.88;33.50;;;10.80;1.00;;;;;;5032386;28;20552;-60
2022/12/31 02:38:24;;;;;;;48.63;34.22;;;10.80;1.00;;;;;;5029364;28;20550;-60
2022/12/31 02:40:53;;;;;;;48.33;33.13;;;10.80;1.00;;;;;;5033853;28;20152;-60
2022/12/31 02:43:18;;;;;;;47.88;33.22;;;10.80;1.00;;;;;;5029743;28;20424;-60
2022/12/31 02:45:53;;;;;;;47.42;34.00;;;10.80;1.00;;;;;;5022059;28;20045;-60
2022/12/31 02:48:28;;;;;;;43.92;31.02;;;10.80;1.00;;;;;;5034437;28;20060;-60
2022/12/31 02:51:11;;;;;;;45.55;31.83;;;10.80;1.00;;;;;;5034192;28;20087;-60
2022/12/31 02:54:03;;;;;;;48.75;34.17;;;10.70;1.00;;;;;;5021463;28;20431;-60
2022/12/31 02:56:31;;;;;;;45.95;32.03;;;10.60;1.00;;;;;;5033550;28;20433;-60
2022/12/31 03:02:15;;;;;;;46.08;33.03;;;10.80;1.00;;;;;;5031197;28;20052;-60
2022/12/31 03:04:56;;;;;;;47.42;32.47;;;10.80;1.00;;;;;;5033684;28;20075;-60
2022/12/31 03:07:28;;;;;;;49.47;32.97;;;10.80;1.00;;;;;;5019621;28;20029;-61
2022/12/31 03:09:54;;;;;;;46.58;31.05;;;10.70;1.00;;;;;;5033425;28;20052;-60
2022/12/31 03:15:21;;;;;;;43.03;30.00;;;10.80;1.00;;;;;;5033430;28;20368;-60
2022/12/31 03:18:09;;;;;;;47.30;33.03;;;10.70;1.00;;;;;;5033828;28;20060;-60
2022/12/31 03:23:41;;;;;;;46.53;31.45;;;10.80;1.00;;;;;;5025292;28;20055;-60
2022/12/31 03:26:09;;;;;;;49.80;30.90;;;10.70;1.00;;;;;;5020134;28;20034;-60
2022/12/31 03:28:35;;;;;;;41.45;30.08;;;10.70;1.00;;;;;;5031641;28;20036;-60
2022/12/31 03:31:02;;;;;;;46.95;32.42;;;10.70;1.00;;;;;;5033213;28;20095;-60
2022/12/31 03:33:36;;;;;;;45.38;31.35;;;10.70;1.00;;;;;;5033012;28;20525;-60
2022/12/31 03:36:07;;;;;;;45.08;33.08;;;10.70;1.00;;;;;;5033197;28;20021;-60
2022/12/31 03:38:32;;;;;;;45.97;31.48;;;10.70;1.00;;;;;;5033056;28;20106;-60
2022/12/31 03:40:58;;;;;;;45.35;31.52;;;10.70;1.00;;;;;;5029947;28;20068;-61
2022/12/31 03:43:24;;;;;;;45.13;31.58;;;10.70;1.00;;;;;;5033407;28;20053;-60
2022/12/31 03:45:51;;;;;;;49.85;32.13;;;10.70;1.00;;;;;;5031071;28;20068;-60
2022/12/31 03:48:18;;;;;;;45.97;32.30;;;10.60;1.00;;;;;;5046717;28;20083;-60
2022/12/31 03:50:44;;;;;;;45.70;31.17;;;10.70;1.00;;;;;;5032785;28;20085;-60
2022/12/31 03:53:10;;;;;;;43.58;32.80;;;10.80;1.00;;;;;;5032781;28;20470;-61
2022/12/31 03:55:36;;;;;;;42.00;30.55;;;10.70;1.00;;;;;;5027921;28;20087;-61
2022/12/31 03:58:01;;;;;;;45.58;32.00;;;10.80;1.00;;;;;;5032857;28;20076;-60
2022/12/31 04:00:27;;;;;;;42.85;32.03;;;10.80;1.00;;;;;;5031052;28;20063;-60
2022/12/31 04:02:53;;;;;;;40.22;30.40;;;10.80;1.00;;;;;;5032662;28;20102;-60
2022/12/31 04:05:20;;;;;;;42.70;30.85;;;10.80;1.00;;;;;;5028947;28;20028;-61
2022/12/31 04:07:46;;;;;;;52.08;33.35;;;10.80;1.00;;;;;;5032906;28;20083;-60
2022/12/31 04:10:13;;;;;;;46.13;31.75;;;10.80;1.00;;;;;;5028834;28;20087;-61
2022/12/31 04:12:39;;;;;;;41.67;30.90;;;10.80;1.00;;;;;;5032526;28;20034;-61
2022/12/31 04:15:06;;;;;;;42.15;30.55;;;10.70;1.00;;;;;;5022008;28;20065;-61
2022/12/31 04:17:32;;;;;;;42.95;30.75;;;10.80;1.00;;;;;;5031948;28;20032;-61
2022/12/31 04:19:58;;;;;;;43.58;31.35;;;10.70;1.00;;;;;;5022609;28;20121;-61
2022/12/31 04:22:24;;;;;;;45.63;31.33;;;10.70;1.00;;;;;;5029952;28;20033;-60
2022/12/31 04:24:50;;;;;;;46.83;32.08;;;10.50;1.00;;;;;;5032105;28;20483;-60
2022/12/31 04:27:17;;;;;;;45.47;31.85;;;10.60;1.00;;;;;;5032266;28;20065;-60
2022/12/31 04:29:42;;;;;;;44.63;31.42;;;10.60;1.00;;;;;;5030411;28;20075;-60
2022/12/31 04:32:10;;;;;;;48.15;32.28;;;10.70;1.00;;;;;;5032208;28;20030;-60
2022/12/31 04:34:35;;;;;;;48.00;32.47;;;10.50;1.00;;;;;;5030190;28;20430;-60
2022/12/31 04:37:02;;;;;;;45.25;31.88;;;10.50;1.00;;;;;;5032283;28;20108;-60
2022/12/31 04:39:27;;;;;;;43.58;31.25;;;10.50;1.00;;;;;;5029962;28;20487;-60
2022/12/31 04:41:53;;;;;;;47.65;32.70;;;10.50;1.00;;;;;;5032069;28;20072;-61
2022/12/31 04:44:19;;;;;;;45.53;31.83;;;10.60;1.00;;;;;;5032456;28;20029;-60
2022/12/31 04:46:45;;;;;;;41.88;30.40;;;10.60;1.00;;;;;;5028217;28;20036;-60
2022/12/31 04:49:11;;;;;;;45.17;31.20;;;10.50;1.00;;;;;;5027468;28;20026;-60
2022/12/31 04:51:37;;;;;;;41.40;29.60;;;10.50;1.00;;;;;;5029647;28;20044;-60
2022/12/31 04:54:02;;;;;;;42.25;29.33;;;10.50;1.00;;;;;;5028119;28;20368;-61
2022/12/31 04:56:29;;;;;;;41.80;30.52;;;10.40;1.00;;;;;;5031151;28;20025;-60
2022/12/31 04:58:55;;;;;;;45.33;31.63;;;10.30;1.00;;;;;;5031821;28;20554;-60
2022/12/31 05:01:21;;;;;;;44.30;30.60;;;10.50;1.00;;;;;;5022934;28;20491;-60
2022/12/31 05:03:47;;;;;;;42.72;30.10;;;10.40;1.00;;;;;;5031664;28;20332;-60
2022/12/31 05:06:16;;;;;;;42.40;30.25;;;10.50;1.00;;;;;;5023272;28;20037;-60
2022/12/31 05:08:42;;;;;;;45.90;30.20;;;10.40;1.00;;;;;;5031535;28;20450;-61
2022/12/31 05:11:08;;;;;;;44.25;29.70;;;10.30;1.00;;;;;;5031177;28;20036;-60
2022/12/31 05:13:34;;;;;;;43.72;29.05;;;10.40;1.00;;;;;;5031418;28;20034;-60
2022/12/31 05:16:01;;;;;;;41.17;29.50;;;10.30;1.00;;;;;;5029496;28;20022;-60
2022/12/31 05:18:36;;;;;;;41.83;27.23;;;10.20;1.00;;;;;;5031576;28;20030;-60
2022/12/31 05:21:02;;;;;;;39.15;28.50;;;10.30;1.00;;;;;;5030781;28;20072;-60
2022/12/31 05:23:31;;;;;;;37.83;27.45;;;10.20;1.00;;;;;;5035576;28;20036;-60
2022/12/31 05:25:58;;;;;;;41.72;29.02;;;10.30;1.00;;;;;;5035623;28;20065;-60
2022/12/31 05:28:29;;;;;;;35.55;26.70;;;10.30;1.00;;;;;;5029876;28;20415;-60
2022/12/31 05:30:54;;;;;;;40.38;28.13;;;10.30;1.00;;;;;;5033858;28;20068;-60
2022/12/31 05:33:21;;;;;;;40.38;28.67;;;10.40;1.00;;;;;;5035588;28;20057;-60
2022/12/31 05:35:56;;;;;;;38.50;27.55;;;10.30;1.00;;;;;;5026497;28;20336;-61
2022/12/31 05:38:22;;;;;;;39.35;28.85;;;10.20;1.00;;;;;;5035275;28;20025;-60
2022/12/31 05:40:47;;;;;;;41.45;27.98;;;10.20;1.00;;;;;;5032230;28;20109;-60
2022/12/31 05:43:13;;;;;;;41.13;27.65;;;10.20;1.00;;;;;;5035220;28;20079;-60
2022/12/31 05:45:39;;;;;;;39.58;27.17;;;10.20;1.00;;;;;;5024427;28;20075;-60
2022/12/31 05:48:05;;;;;;;42.40;27.73;;;10.20;1.00;;;;;;5035261;28;20021;-60
2022/12/31 05:50:30;;;;;;;41.90;28.17;;;10.20;1.00;;;;;;5033473;28;20163;-61
2022/12/31 05:52:56;;;;;;;41.40;28.50;;;10.20;1.00;;;;;;5033779;28;20026;-60
2022/12/31 05:55:22;;;;;;;38.72;27.98;;;10.10;1.00;;;;;;5034692;28;20108;-60
2022/12/31 05:57:48;;;;;;;39.70;28.98;;;10.20;1.00;;;;;;5035058;28;20467;-60
2022/12/31 06:00:14;;;;;;;37.03;28.42;;;10.10;1.00;;;;;;5034566;28;20029;-60
2022/12/31 06:02:40;;;;;;;38.03;26.70;;;10.20;1.00;;;;;;5033330;28;20064;-60
2022/12/31 06:05:06;;;;;;;36.60;27.17;;;10.30;1.00;;;;;;5026134;28;20482;-60
2022/12/31 06:07:32;;;;;;;39.78;28.23;;;10.30;1.00;;;;;;5034827;28;20025;-60
2022/12/31 06:09:57;;;;;;;40.92;28.38;;;10.20;1.00;;;;;;5024004;28;20124;-60
2022/12/31 06:12:23;;;;;;;36.45;27.33;;;10.20;1.00;;;;;;5034710;28;20032;-59
2022/12/31 06:14:49;;;;;;;38.58;29.20;;;10.30;1.00;;;;;;5022013;28;20117;-60
2022/12/31 06:17:14;;;;;;;38.17;28.45;;;10.40;1.00;;;;;;5032445;28;20060;-60
2022/12/31 06:19:40;;;;;;;43.40;30.88;;;10.30;1.00;;;;;;5033471;28;20028;-60
2022/12/31 06:22:05;;;;;;;36.65;27.02;;;10.40;1.00;;;;;;5034545;28;20033;-60
2022/12/31 06:24:31;;;;;;;38.63;27.63;;;10.30;1.00;;;;;;5032500;28;20025;-60
2022/12/31 06:26:57;;;;;;;39.33;27.73;;;10.30;1.00;;;;;;5034429;28;20126;-60
2022/12/31 06:29:22;;;;;;;37.95;28.65;;;10.40;1.00;;;;;;5030883;28;20017;-60
2022/12/31 06:31:48;;;;;;;40.40;27.60;;;10.40;1.00;;;;;;5025780;28;20467;-60
2022/12/31 06:34:13;;;;;;;38.88;28.80;;;10.40;1.00;;;;;;5033907;28;20021;-60
2022/12/31 06:36:39;;;;;;;39.92;27.27;;;10.40;1.00;;;;;;5025435;28;20026;-60
2022/12/31 06:39:05;;;;;;;37.22;26.38;;;10.40;1.00;;;;;;5033836;28;20386;-60
2022/12/31 06:41:31;;;;;;;38.58;27.30;;;10.20;1.00;;;;;;5033932;28;20031;-60
2022/12/31 06:43:57;;;;;;;36.38;26.67;;;10.20;1.00;;;;;;5033998;28;20021;-60
2022/12/31 06:46:22;;;;;;;35.83;26.42;;;10.20;1.00;;;;;;5021319;28;20187;-60
2022/12/31 06:48:48;;;;;;;35.70;25.70;;;10.30;1.00;;;;;;5032379;28;20022;-60
2022/12/31 06:51:16;;;;;;;38.00;25.90;;;10.20;1.00;;;;;;5032712;28;20013;-59
2022/12/31 06:53:43;;;;;;;37.95;26.52;;;10.20;1.00;;;;;;5031169;28;20037;-60
2022/12/31 06:56:14;;;;;;;36.17;25.58;;;10.30;1.00;;;;;;5030446;28;20048;-60
2022/12/31 06:58:40;;;;;;;39.10;26.42;;;10.20;1.00;;;;;;5047560;28;20061;-60
2022/12/31 07:01:18;;;;;;;36.53;25.30;;;10.20;1.00;;;;;;5033798;28;20514;-60
2022/12/31 07:04:05;;;;;;;35.25;25.45;;;10.10;1.00;;;;;;5032125;28;20052;-60
2022/12/31 07:06:43;;;;;;;35.58;25.58;;;10.20;1.00;;;;;;5027552;28;20029;-60
2022/12/31 07:09:30;;;;;;;39.45;25.77;;;10.20;1.00;;;;;;5028448;28;20120;-60
2022/12/31 07:12:05;;;;;;;37.00;25.23;;;10.30;1.00;;;;;;5029784;28;20387;-60
2022/12/31 07:14:45;;;;;;;35.67;25.58;;;10.30;1.00;;;;;;5023217;28;20021;-59
2022/12/31 07:17:29;;;;;;;37.55;24.95;;;10.40;1.00;;;;;;5031766;28;20104;-60
2022/12/31 07:20:16;;;;;;;37.65;25.90;;;10.40;1.00;;;;;;5032205;28;20033;-60
2022/12/31 07:22:43;;;;;;;32.47;25.27;;;10.20;1.00;;;;;;5020350;28;20037;-60
2022/12/31 07:25:16;;;;;;;41.22;27.13;;;10.20;1.00;;;;;;5022058;28;20037;-60
2022/12/31 07:28:29;;;;;;;33.25;25.17;;;10.30;1.00;;;;;;5019314;28;20025;-61
2022/12/31 07:31:12;;;;;;;35.80;25.92;;;10.40;1.00;;;;;;5010820;28;20544;-60
2022/12/31 07:33:54;;;;;;;34.33;24.42;;;10.20;1.00;;;;;;5011090;28;20037;-60
2022/12/31 07:37:01;;;;;;;32.45;25.05;;;10.30;1.00;;;;;;5020595;28;20033;-60
2022/12/31 07:39:46;;;;;;;33.15;24.63;;;10.40;1.00;;;;;;5029644;28;20119;-59
2022/12/31 07:42:26;;;;;;;34.17;25.23;;;10.50;1.00;;;;;;5026549;28;20119;-60
2022/12/31 07:45:17;;;;;;;34.97;26.15;;;10.50;1.00;;;;;;5028858;28;20429;-60
2022/12/31 07:47:42;;;;;;;33.65;24.48;;;10.50;1.00;;;;;;5029630;28;20386;-60
2022/12/31 07:50:14;;;;;;;33.90;24.15;;;10.60;1.00;;;;;;5031125;28;20112;-59
2022/12/31 07:52:40;;;;;;;34.97;26.00;;;10.50;1.00;;;;;;5029642;28;20029;-59
2022/12/31 07:55:06;;;;;;;32.08;23.08;;;10.50;1.00;;;;;;5028827;28;20091;-60
2022/12/31 07:57:52;;;;;;;35.05;25.33;;;10.50;1.00;;;;;;5042282;28;20028;-60
2022/12/31 08:00:18;;;;;;;31.02;24.13;;;10.50;1.00;;;;;;5024903;28;20391;-60
2022/12/31 08:03:02;;;;;;;33.33;25.05;;;10.50;1.00;;;;;;5032685;28;20045;-60
2022/12/31 08:06:12;;;;;;;36.65;24.15;;;10.40;1.00;;;;;;5022836;28;20029;-60
2022/12/31 08:09:12;;;;;;;35.58;25.17;;;10.50;1.00;;;;;;5029059;28;20400;-59
2022/12/31 08:11:42;;;;;;;39.22;26.20;;;10.60;1.00;;;;;;5028728;28;20060;-60
2022/12/31 08:14:12;;;;;;;34.28;25.27;;;10.70;1.00;;;;;;5031043;28;20037;-60
2022/12/31 08:24:07;;;;;;;33.47;24.98;;;10.70;1.00;;;;;;5027093;28;20044;-60
2022/12/31 08:27:08;;;;;;;32.67;24.38;;;10.70;1.00;;;;;;5028934;28;20021;-60
2022/12/31 08:29:34;;;;;;;35.65;24.45;;;10.70;1.00;;;;;;5033849;28;20034;-60
2022/12/31 08:32:17;;;;;;;35.53;25.52;;;10.60;1.00;;;;;;5031921;28;20024;-59
2022/12/31 08:34:55;;;;;;;35.83;25.35;;;10.70;1.00;;;;;;5032246;28;20033;-59
2022/12/31 08:37:41;;;;;;;29.80;23.10;;;10.60;1.00;;;;;;5019622;28;20070;-59
2022/12/31 08:40:41;;;;;;;34.13;24.30;;;10.60;1.00;;;;;;5022880;28;20050;-59
2022/12/31 08:43:32;;;;;;;28.08;22.58;;;10.70;1.00;;;;;;5032029;28;20045;-60
2022/12/31 08:45:59;;;;;;;30.60;22.55;;;10.60;1.00;;;;;;5028583;28;20511;-60
2022/12/31 08:48:29;;;;;;;32.22;24.80;;;10.80;1.00;;;;;;5032199;28;20055;-60
2022/12/31 08:50:56;;;;;;;32.00;23.20;;;10.80;1.00;;;;;;5030560;28;20102;-60
2022/12/31 08:53:21;;;;;;;34.45;25.42;;;10.80;1.00;;;;;;5030351;28;20395;-60
2022/12/31 08:55:51;;;;;;;32.85;24.25;;;10.80;1.00;;;;;;5031179;28;20040;-60
2022/12/31 08:58:25;;;;;;;32.03;23.35;;;10.80;1.00;;;;;;5045903;28;20514;-60
2022/12/31 09:00:54;;;;;;;31.33;22.83;;;10.80;1.00;;;;;;5030055;28;20026;-60
2022/12/31 09:03:54;;;;;;;31.83;23.42;;;10.70;1.00;;;;;;5031955;28;20360;-60
2022/12/31 09:06:52;;;;;;;28.73;22.67;;;10.90;1.00;;;;;;5028883;28;20036;-60
2022/12/31 09:09:37;;;;;;;31.80;22.55;;;10.90;1.00;;;;;;5018959;28;20022;-60
2022/12/31 09:12:15;;;;;;;32.75;23.42;;;11.00;1.00;;;;;;5031679;28;20067;-60
2022/12/31 09:14:47;;;;;;;31.00;22.33;;;11.10;1.00;;;;;;5030408;28;20463;-60
2022/12/31 09:17:41;;;;;;;29.98;23.13;;;11.10;1.00;;;;;;5030776;28;20037;-60
2022/12/31 09:20:23;;;;;;;34.30;23.15;;;10.90;1.00;;;;;;5030510;28;20172;-59
2022/12/31 09:22:50;;;;;;;26.90;22.13;;;11.00;1.00;;;;;;5025719;28;20041;-59
2022/12/31 09:25:19;;;;;;;30.40;24.23;;;11.10;1.00;;;;;;5030941;28;20037;-59
2022/12/31 09:27:56;;;;;;;30.35;23.20;;;11.20;1.00;;;;;;5029886;28;20021;-59
2022/12/31 09:30:22;;;;;;;32.53;24.40;;;11.20;1.00;;;;;;5024794;28;20072;-59
2022/12/31 09:33:24;;;;;;;30.83;23.33;;;11.20;1.00;;;;;;5031272;28;20056;-59
2022/12/31 09:35:56;;;;;;;30.65;22.88;;;11.30;1.00;;;;;;5020535;28;20028;-60
2022/12/31 09:38:59;;;;;;;30.45;23.23;;;11.40;1.00;;;;;;5028282;28;20503;-59
2022/12/31 09:41:52;;;;;;;30.80;23.48;;;11.40;1.00;;;;;;5024020;28;20052;-59
2022/12/31 09:44:39;;;;;;;32.80;24.10;;;11.40;1.00;;;;;;5015395;28;20115;-60
2022/12/31 09:47:30;;;;;;;32.72;23.20;;;11.30;1.00;;;;;;5028605;28;20024;-60
2022/12/31 09:50:16;;;;;;;33.30;23.80;;;11.30;1.00;;;;;;5031348;28;20034;-59
2022/12/31 09:53:02;;;;;;;30.67;23.40;;;11.30;1.00;;;;;;5018793;28;20432;-59
2022/12/31 09:55:48;;;;;;;33.08;24.52;;;11.30;1.00;;;;;;5030787;28;20030;-59
2022/12/31 09:58:40;;;;;;;32.30;23.75;;;11.40;1.00;;;;;;5031071;28;20108;-59
2022/12/31 10:01:20;;;;;;;27.70;22.73;;;11.20;1.00;;;;;;5017661;28;20030;-59
2022/12/31 10:04:14;;;;;;;32.33;23.20;;;11.40;1.00;;;;;;5031060;28;20036;-60
2022/12/31 10:06:53;;;;;;;32.63;24.00;;;11.30;1.00;;;;;;5022312;28;20022;-59
2022/12/31 10:09:49;;;;;;;31.90;23.73;;;11.20;1.00;;;;;;5012940;28;20496;-59
2022/12/31 10:12:46;;;;;;;28.48;23.38;;;11.30;1.00;;;;;;5035096;28;20128;-60
2022/12/31 10:15:40;;;;;;;32.03;24.65;;;11.30;1.00;;;;;;5025574;28;20033;-60
2022/12/31 10:18:35;;;;;;;31.02;24.00;;;11.30;1.00;;;;;;5034808;28;20187;-60
2022/12/31 10:21:25;;;;;;;30.05;24.17;;;11.40;1.00;;;;;;5014868;28;20034;-60
2022/12/31 10:24:03;;;;;;;30.27;25.23;;;11.40;1.00;;;;;;5034515;28;20124;-60
2022/12/31 10:26:35;;;;;;;29.98;24.45;;;11.40;1.00;;;;;;5033867;28;20045;-60
2022/12/31 10:29:25;;;;;;;27.00;23.45;;;11.30;1.00;;;;;;5034549;28;20033;-61
2022/12/31 10:32:07;;;;;;;34.50;24.15;;;11.40;1.00;;;;;;5021771;28;20029;-60
2022/12/31 10:35:17;;;;;;;34.78;24.80;;;11.40;1.00;;;;;;5031940;28;20112;-60
2022/12/31 10:37:51;;;;;;;33.70;24.92;;;11.40;1.00;;;;;;5029974;28;20084;-60
2022/12/31 10:40:48;;;;;;;34.58;25.88;;;11.30;1.00;;;;;;5033849;28;20158;-60
2022/12/31 10:43:35;;;;;;;30.60;24.83;;;11.00;1.00;;;;;;5021683;28;20069;-60
2022/12/31 10:46:04;;;;;;;31.63;25.13;;;11.10;1.00;;;;;;5034535;28;20383;-60
2022/12/31 10:49:20;;;;;;;33.80;25.85;;;11.20;1.00;;;;;;5034048;28;20540;-60
2022/12/31 10:52:17;;;;;;;30.48;23.83;;;11.30;1.00;;;;;;5021956;28;20128;-60
2022/12/31 10:54:43;;;;;;;29.35;22.95;;;11.20;1.00;;;;;;5033611;28;20125;-60
2022/12/31 10:57:17;;;;;;;30.13;23.30;;;11.20;1.00;;;;;;5018484;28;20112;-60
2022/12/31 11:00:07;;;;;;;29.45;22.95;;;11.20;1.00;;;;;;5032363;28;20101;-60
2022/12/31 11:02:55;;;;;;;32.50;24.02;;;11.20;1.00;;;;;;5020605;28;20029;-61
2022/12/31 11:05:49;;;;;;;29.23;23.35;;;11.30;1.00;;;;;;5022393;28;20018;-60
2022/12/31 11:08:44;;;;;;;30.25;23.88;;;11.40;1.00;;;;;;5032325;28;20052;-60
2022/12/31 11:11:43;;;;;;;28.97;24.00;;;11.40;1.00;;;;;;5021483;28;20512;-60
2022/12/31 11:14:15;;;;;;;31.27;24.33;;;11.50;1.00;;;;;;5032127;28;20288;-60
2022/12/31 11:16:49;;;;;;;29.45;24.00;;;11.50;1.00;;;;;;5033935;28;20045;-61
2022/12/31 11:19:33;;;;;;;29.35;24.58;;;11.50;1.00;;;;;;5020506;28;20022;-61
2022/12/31 11:22:13;;;;;;;35.28;25.70;;;11.50;1.00;;;;;;5033243;28;20471;-61
2022/12/31 11:25:10;;;;;;;30.40;23.85;;;11.50;1.00;;;;;;5031365;28;20340;-61
2022/12/31 11:28:03;;;;;;;33.97;26.48;;;11.60;1.00;;;;;;5029189;28;20472;-60
2022/12/31 11:30:54;;;;;;;31.88;24.58;;;11.60;1.00;;;;;;5026289;28;20379;-60
2022/12/31 11:33:30;;;;;;;29.00;23.58;;;11.70;1.00;;;;;;5025702;28;20028;-60
2022/12/31 11:36:28;;;;;;;30.83;24.13;;;11.60;1.00;;;;;;5033145;28;20025;-61
2022/12/31 11:39:34;;;;;;;29.13;21.88;;;11.60;1.00;;;;;;5026888;28;20033;-60
2022/12/31 11:42:08;;;;;;;;;;;11.50;1.00;;;;;;5033074;28;20052;-61
2022/12/31 11:45:11;;;;;;;32.25;25.90;;;11.40;1.00;;;;;;5026372;28;19996;-61
2022/12/31 11:47:50;;;;;;;31.50;24.67;;;11.50;1.00;;;;;;5019136;28;20050;-61
2022/12/31 11:50:39;;;;;;;30.90;25.83;;;11.60;1.00;;;;;;5024280;28;20390;-60
2022/12/31 11:53:27;;;;;;;36.13;26.38;;;11.60;1.00;;;;;;5032806;28;20033;-61
2022/12/31 11:56:22;;;;;;;27.58;21.65;;;11.70;1.00;;;;;;5019934;28;20099;-61
2022/12/31 11:58:52;;;;;;;30.55;24.33;;;11.70;1.00;;;;;;5032379;28;20430;-61
2022/12/31 12:01:21;;;;;;;28.45;21.45;;;11.70;1.00;;;;;;5023915;28;20434;-61
2022/12/31 12:03:47;;;;;;;29.58;23.55;;;11.80;1.00;;;;;;5029728;28;20071;-61
2022/12/31 12:06:25;;;;;;;30.60;24.55;;;11.80;1.00;;;;;;5032677;28;20025;-61
2022/12/31 12:08:52;;;;;;;31.05;24.00;;;11.90;1.00;;;;;;5031760;28;20051;-60
2022/12/31 12:11:23;;;;;;;30.02;24.02;;;11.80;1.00;;;;;;5032246;28;20044;-61
2022/12/31 12:13:49;;;;;;;27.02;22.83;;;11.80;1.00;;;;;;5031789;28;20108;-60
2022/12/31 12:16:15;;;;;;;29.13;24.42;;;11.90;1.00;;;;;;5020256;28;20116;-61
2022/12/31 12:19:16;;;;;;;31.60;24.88;;;12.00;1.00;;;;;;5032601;28;20379;-61
2022/12/31 12:21:46;;;;;;;30.27;25.05;;;12.00;1.00;;;;;;5025818;28;20061;-61
2022/12/31 12:24:28;;;;;;;32.53;25.38;;;12.00;1.00;;;;;;5030339;28;20428;-61
2022/12/31 12:26:55;;;;;;;33.20;24.58;;;11.90;1.00;;;;;;5029425;28;20068;-61
2022/12/31 12:29:25;;;;;;;30.55;24.05;;;11.90;1.00;;;;;;5031854;28;20022;-60
2022/12/31 12:31:58;;;;;;;29.45;24.80;;;12.00;1.00;;;;;;5025647;28;20356;-60
2022/12/31 12:34:27;;;;;;;32.10;24.98;;;11.90;1.00;;;;;;5030665;28;20034;-60
2022/12/31 12:36:52;;;;;;;30.95;24.63;;;12.00;1.00;;;;;;5031994;28;20506;-60
2022/12/31 12:39:25;;;;;;;32.50;24.88;;;11.90;1.00;;;;;;5029386;28;20077;-60
2022/12/31 12:42:06;;;;;;;30.40;25.05;;;11.90;1.00;;;;;;5031858;28;20033;-61
2022/12/31 12:44:34;;;;;;;32.13;25.90;;;12.00;1.00;;;;;;5025724;28;20531;-61
2022/12/31 12:47:02;;;;;;;30.10;24.77;;;12.00;1.00;;;;;;5030951;28;20127;-61
2022/12/31 12:49:31;;;;;;;34.15;26.45;;;12.00;1.00;;;;;;5031624;28;20025;-61
2022/12/31 12:52:08;;;;;;;31.63;25.40;;;12.00;1.00;;;;;;5045790;28;20021;-60
2022/12/31 12:54:37;;;;;;;39.03;27.63;;;12.00;1.00;;;;;;5031525;28;20094;-60
2022/12/31 12:57:16;;;;;;;32.83;26.40;;;11.90;1.00;;;;;;5031970;28;20053;-60
2022/12/31 13:00:17;;;;;;;36.70;27.05;;;11.90;1.00;;;;;;5029907;28;20060;-61
2022/12/31 13:03:14;;;;;;;32.00;26.58;;;12.00;1.00;;;;;;5020193;28;20080;-60
2022/12/31 13:05:40;;;;;;;33.42;26.48;;;12.00;1.00;;;;;;5028868;28;20030;-61
2022/12/31 13:08:42;;;;;;;34.92;27.88;;;12.00;1.00;;;;;;5030207;28;20033;-60
2022/12/31 13:11:26;;;;;;;33.92;26.33;;;12.00;1.00;;;;;;5019804;28;20190;-60
2022/12/31 13:14:25;;;;;;;30.67;26.20;;;12.00;1.00;;;;;;5020088;28;20056;-60
2022/12/31 13:17:03;;;;;;;31.98;25.95;;;12.00;1.00;;;;;;5024673;28;20026;-60
2022/12/31 13:19:56;;;;;;;30.50;25.80;;;12.00;1.00;;;;;;5017196;28;20497;-60
2022/12/31 13:33:00;;;;;;;31.70;25.63;;;12.00;1.00;;;;;;5024120;28;20107;-60
2022/12/31 13:35:37;;;;;;;33.42;27.02;;;11.90;1.00;;;;;;5022549;28;20514;-60
2022/12/31 13:38:09;;;;;;;31.35;24.98;;;12.00;1.00;;;;;;5030901;28;20492;-61
2022/12/31 13:41:01;;;;;;;31.65;25.52;;;11.90;1.00;;;;;;5019245;28;20492;-60
2022/12/31 13:43:47;;;;;;;30.90;25.05;;;11.90;1.00;;;;;;5028148;28;20042;-60
2022/12/31 13:46:29;;;;;;;32.47;24.88;;;12.00;1.00;;;;;;5038686;28;20093;-60
2022/12/31 13:49:03;;;;;;;33.58;27.00;;;11.90;1.00;;;;;;5032488;28;20258;-60
2022/12/31 13:51:40;;;;;;;33.83;25.90;;;12.00;1.00;;;;;;5032966;28;20421;-60